createdAt,value
2019-01-10T00:01:45.421Z,2.72
2019-01-10T00:04:12.837Z,2.64
2019-01-10T00:06:40.234Z,2.56
2019-01-10T00:09:07.645Z,2.54
2019-01-10T00:11:35.046Z,2.49
2019-01-10T00:14:02.455Z,2.54
2019-01-10T00:16:29.862Z,2.49
2019-01-10T00:18:57.343Z,2.49
2019-01-10T00:21:24.764Z,2.50
2019-01-10T00:23:52.239Z,2.48
2019-01-10T00:26:19.748Z,2.53
2019-01-10T00:28:47.747Z,2.52
2019-01-10T00:31:15.176Z,2.46
2019-01-10T00:33:46.140Z,2.40
2019-01-10T00:36:13.628Z,2.35
2019-01-10T00:38:41.142Z,2.30
2019-01-10T00:41:08.559Z,2.32
2019-01-10T00:43:35.950Z,2.45
2019-01-10T00:46:03.985Z,2.50
2019-01-10T00:48:31.414Z,2.55
2019-01-10T00:50:58.820Z,2.58
2019-01-10T00:53:26.196Z,2.63
2019-01-10T00:55:53.634Z,2.69
2019-01-10T00:58:21.005Z,2.78
2019-01-10T01:00:48.398Z,2.80
2019-01-10T01:03:16.076Z,2.82
2019-01-10T01:05:43.588Z,2.82
2019-01-10T01:08:11.281Z,2.83
2019-01-10T01:10:38.766Z,2.72
2019-01-10T01:13:06.152Z,2.65
2019-01-10T01:15:33.575Z,2.62
2019-01-10T01:18:00.969Z,2.65
2019-01-10T01:20:28.393Z,2.82
2019-01-10T01:22:55.816Z,2.88
2019-01-10T01:25:23.206Z,2.95
2019-01-10T01:27:50.705Z,2.93
2019-01-10T01:30:18.884Z,2.93
2019-01-10T01:32:46.287Z,2.94
2019-01-10T01:35:13.689Z,2.90
2019-01-10T01:37:41.077Z,2.82
2019-01-10T01:40:08.480Z,2.79
2019-01-10T01:42:35.885Z,2.80
2019-01-10T01:45:03.263Z,2.81
2019-01-10T01:47:30.666Z,2.84
2019-01-10T01:49:58.055Z,2.89
2019-01-10T01:52:25.450Z,2.90
2019-01-10T01:54:52.862Z,2.89
2019-01-10T01:57:20.269Z,2.84
2019-01-10T01:59:47.661Z,2.70
2019-01-10T02:02:15.073Z,2.61
2019-01-10T02:04:42.458Z,2.54
2019-01-10T02:07:09.858Z,2.59
2019-01-10T02:09:37.256Z,2.62
2019-01-10T02:12:04.645Z,2.60
2019-01-10T02:14:32.078Z,2.61
2019-01-10T02:16:59.499Z,2.58
2019-01-10T02:19:26.975Z,2.56
2019-01-10T02:21:54.388Z,2.47
2019-01-10T02:24:21.791Z,2.49
2019-01-10T02:26:49.200Z,2.51
2019-01-10T02:29:16.887Z,2.56
2019-01-10T02:31:44.282Z,2.58
2019-01-10T02:34:11.685Z,2.63
2019-01-10T02:36:39.094Z,2.72
2019-01-10T02:39:06.504Z,2.76
2019-01-10T02:41:34.015Z,2.74
2019-01-10T02:44:01.410Z,2.73
2019-01-10T02:46:28.799Z,2.73
2019-01-10T02:48:56.462Z,2.75
2019-01-10T02:51:23.912Z,2.81
2019-01-10T02:53:51.298Z,2.85
2019-01-10T02:56:18.716Z,2.91
2019-01-10T02:58:46.103Z,2.93
2019-01-10T03:01:13.567Z,2.95
2019-01-10T03:03:40.992Z,2.94
2019-01-10T03:06:08.400Z,2.93
2019-01-10T03:08:35.809Z,2.93
2019-01-10T03:11:03.214Z,2.90
2019-01-10T03:13:36.550Z,2.88
2019-01-10T03:15:58.032Z,2.91
2019-01-10T03:18:25.447Z,2.88
2019-01-10T03:20:52.854Z,2.90
2019-01-10T03:23:20.264Z,2.89
2019-01-10T03:25:47.649Z,2.87
2019-01-10T03:28:15.083Z,2.85
2019-01-10T03:30:42.490Z,2.87
2019-01-10T03:33:09.878Z,2.91
2019-01-10T03:35:37.281Z,2.89
2019-01-10T03:38:04.701Z,2.90
2019-01-10T03:40:32.164Z,2.94
2019-01-10T03:42:59.611Z,2.95
2019-01-10T03:45:27.002Z,2.97
2019-01-10T03:47:55.234Z,3.01
2019-01-10T03:50:22.656Z,3.06
2019-01-10T03:52:50.069Z,3.06
2019-01-10T03:55:17.462Z,3.10
2019-01-10T03:57:44.862Z,3.09
2019-01-10T04:00:20.729Z,3.08
2019-01-10T04:02:48.198Z,3.07
2019-01-10T04:05:15.745Z,3.02
2019-01-10T04:07:43.692Z,3.00
2019-01-10T04:10:11.145Z,2.97
2019-01-10T04:12:38.739Z,2.99
2019-01-10T04:15:06.208Z,3.03
2019-01-10T04:17:33.608Z,3.07
2019-01-10T04:20:01.030Z,3.09
2019-01-10T04:22:28.435Z,3.14
2019-01-10T04:24:55.836Z,3.09
2019-01-10T04:27:23.257Z,3.06
2019-01-10T04:29:50.679Z,3.02
2019-01-10T04:32:18.069Z,3.00
2019-01-10T04:34:45.477Z,3.01
2019-01-10T04:37:12.918Z,3.04
2019-01-10T04:39:40.322Z,3.03
2019-01-10T04:42:07.717Z,3.00
2019-01-10T04:44:35.268Z,3.07
2019-01-10T04:47:02.665Z,3.07
2019-01-10T04:49:30.074Z,3.11
2019-01-10T04:51:57.472Z,3.11
2019-01-10T04:54:24.881Z,3.01
2019-01-10T04:56:52.289Z,2.98
2019-01-10T04:59:19.715Z,2.98
2019-01-10T05:01:47.128Z,3.04
2019-01-10T05:04:14.541Z,3.06
2019-01-10T05:06:41.940Z,3.12
2019-01-10T05:09:09.341Z,3.13
2019-01-10T05:11:36.764Z,3.15
2019-01-10T05:14:04.165Z,3.14
2019-01-10T05:16:31.560Z,3.14
2019-01-10T05:18:59.063Z,3.23
2019-01-10T05:21:26.454Z,3.20
2019-01-10T05:23:54.169Z,3.16
2019-01-10T05:26:21.558Z,3.15
2019-01-10T05:28:49.808Z,3.11
2019-01-10T05:31:17.201Z,3.14
2019-01-10T05:33:44.604Z,3.13
2019-01-10T05:36:12.012Z,3.02
2019-01-10T05:38:39.441Z,2.97
2019-01-10T05:41:06.836Z,2.95
2019-01-10T05:43:34.802Z,2.97
2019-01-10T05:46:02.207Z,2.94
2019-01-10T05:48:29.611Z,2.99
2019-01-10T05:50:56.999Z,2.94
2019-01-10T05:53:24.659Z,2.92
2019-01-10T05:55:52.060Z,2.87
2019-01-10T05:58:19.561Z,2.82
2019-01-10T06:00:46.962Z,2.73
2019-01-10T06:03:14.351Z,2.72
2019-01-10T06:05:41.788Z,2.79
2019-01-10T06:08:09.238Z,2.73
2019-01-10T06:10:36.647Z,2.69
2019-01-10T06:13:04.075Z,2.65
2019-01-10T06:15:31.478Z,2.59
2019-01-10T06:17:59.364Z,2.59
2019-01-10T06:20:26.766Z,2.53
2019-01-10T06:22:54.179Z,2.51
2019-01-10T06:25:21.604Z,2.44
2019-01-10T06:27:49.351Z,2.44
2019-01-10T06:30:16.771Z,2.44
2019-01-10T06:32:44.385Z,2.41
2019-01-10T06:35:11.787Z,2.45
2019-01-10T06:37:39.175Z,2.45
2019-01-10T06:40:06.672Z,2.39
2019-01-10T06:42:34.121Z,2.36
2019-01-10T06:45:01.516Z,2.33
2019-01-10T06:47:29.643Z,2.32
2019-01-10T06:49:57.223Z,2.31
2019-01-10T06:52:24.699Z,2.29
2019-01-10T06:54:56.633Z,2.27
2019-01-10T06:57:20.020Z,2.32
2019-01-10T06:59:47.478Z,2.34
2019-01-10T07:02:14.910Z,2.36
2019-01-10T07:04:42.556Z,2.41
2019-01-10T07:07:10.869Z,2.53
2019-01-10T07:09:38.287Z,2.48
2019-01-10T07:12:07.657Z,2.48
2019-01-10T07:14:33.115Z,2.49
2019-01-10T07:17:00.585Z,2.53
2019-01-10T07:19:28.065Z,2.62
2019-01-10T07:21:56.453Z,2.71
2019-01-10T07:24:23.835Z,2.71
2019-01-10T07:26:51.261Z,2.60
2019-01-10T07:29:18.670Z,2.48
2019-01-10T07:31:46.076Z,2.40
2019-01-10T07:34:13.533Z,2.36
2019-01-10T07:36:40.929Z,2.38
2019-01-10T07:39:08.451Z,2.48
2019-01-10T07:41:36.718Z,2.59
2019-01-10T07:44:04.176Z,2.70
2019-01-10T07:46:31.610Z,2.76
2019-01-10T07:48:59.020Z,2.83
2019-01-10T07:51:26.422Z,2.90
2019-01-10T07:53:53.877Z,2.92
2019-01-10T07:56:21.279Z,2.92
2019-01-10T07:58:49.013Z,2.99
2019-01-10T08:01:16.397Z,3.03
2019-01-10T08:03:43.927Z,3.02
2019-01-10T08:06:11.363Z,3.10
2019-01-10T08:08:38.786Z,3.31
2019-01-10T08:11:06.304Z,3.53
2019-01-10T08:13:33.835Z,3.68
2019-01-10T08:16:01.247Z,3.64
2019-01-10T08:18:28.751Z,3.56
2019-01-10T08:20:56.183Z,3.39
2019-01-10T08:23:23.827Z,3.51
2019-01-10T08:25:51.224Z,3.62
2019-01-10T08:28:18.650Z,3.64
2019-01-10T08:30:46.100Z,4.07
2019-01-10T08:33:13.872Z,5.24
2019-01-10T08:35:41.924Z,5.94
2019-01-10T08:38:09.425Z,6.22
2019-01-10T08:40:36.913Z,6.68
2019-01-10T08:43:04.344Z,7.02
2019-01-10T08:45:32.038Z,6.45
2019-01-10T08:48:00.057Z,6.13
2019-01-10T08:50:28.212Z,6.82
2019-01-10T08:52:55.668Z,6.93
2019-01-10T08:55:24.331Z,7.85
2019-01-10T08:57:52.684Z,7.81
2019-01-10T09:00:20.202Z,7.41
2019-01-10T09:02:47.616Z,7.50
2019-01-10T09:05:15.047Z,8.06
2019-01-10T09:07:43.348Z,8.57
2019-01-10T09:10:14.262Z,9.02
2019-01-10T09:12:42.105Z,9.31
2019-01-10T09:15:09.574Z,9.90
2019-01-10T09:17:37.070Z,10.10
2019-01-10T09:20:05.372Z,9.88
2019-01-10T09:22:32.882Z,9.73
2019-01-10T09:25:00.288Z,9.86
2019-01-10T09:27:27.744Z,10.19
2019-01-10T09:29:55.163Z,9.99
2019-01-10T09:32:22.574Z,9.60
2019-01-10T09:34:49.983Z,7.93
2019-01-10T09:37:17.387Z,6.67
2019-01-10T09:39:44.873Z,6.66
2019-01-10T09:42:12.385Z,8.76
2019-01-10T09:44:39.880Z,9.97
2019-01-10T09:47:07.312Z,8.73
2019-01-10T09:49:35.537Z,7.65
2019-01-10T09:52:03.322Z,6.85
2019-01-10T09:54:31.441Z,6.72
2019-01-10T09:56:58.913Z,6.75
2019-01-10T09:59:26.425Z,7.06
2019-01-10T10:01:53.836Z,6.60
2019-01-10T10:04:21.226Z,6.14
2019-01-10T10:06:48.622Z,5.50
2019-01-10T10:09:17.003Z,5.24
2019-01-10T10:11:44.387Z,5.21
2019-01-10T10:14:11.827Z,5.97
2019-01-10T10:16:39.362Z,5.97
2019-01-10T10:19:06.881Z,7.43
2019-01-10T10:21:34.306Z,7.26
2019-01-10T10:24:01.709Z,6.02
2019-01-10T10:26:29.114Z,6.03
2019-01-10T10:28:56.597Z,5.57
2019-01-10T10:31:23.992Z,5.30
2019-01-10T10:33:51.419Z,4.98
2019-01-10T10:36:18.915Z,5.32
2019-01-10T10:38:46.450Z,5.62
2019-01-10T10:41:13.930Z,6.10
2019-01-10T10:43:42.003Z,7.22
2019-01-10T10:46:09.448Z,7.08
2019-01-10T10:48:36.843Z,6.60
2019-01-10T10:51:04.446Z,5.90
2019-01-10T10:53:31.867Z,6.01
2019-01-10T10:55:59.349Z,6.01
2019-01-10T10:58:26.774Z,5.96
2019-01-10T11:00:57.036Z,6.43
2019-01-10T11:03:24.458Z,6.67
2019-01-10T11:05:51.958Z,7.21
2019-01-10T11:08:19.408Z,7.24
2019-01-10T11:10:46.824Z,6.87
2019-01-10T11:13:14.255Z,6.83
2019-01-10T11:15:42.851Z,6.60
2019-01-10T11:18:09.544Z,6.33
2019-01-10T11:20:37.027Z,6.01
2019-01-10T11:23:10.558Z,5.87
2019-01-10T11:25:32.036Z,6.65
2019-01-10T11:27:59.511Z,8.17
2019-01-10T11:30:27.035Z,10.09
2019-01-10T11:32:54.043Z,11.56
2019-01-10T11:35:21.030Z,12.56
2019-01-10T11:37:48.697Z,13.23
2019-01-10T11:40:18.155Z,12.60
2019-01-10T11:42:46.565Z,11.83
2019-01-10T11:45:13.993Z,10.35
2019-01-10T11:47:41.425Z,9.19
2019-01-10T11:50:08.843Z,9.23
2019-01-10T11:52:36.673Z,9.37
2019-01-10T11:55:04.145Z,9.40
2019-01-10T11:57:31.647Z,9.65
2019-01-10T11:59:59.057Z,9.88
2019-01-10T12:02:26.518Z,10.68
2019-01-10T12:04:53.958Z,10.69
2019-01-10T12:07:21.382Z,11.17
2019-01-10T12:09:48.996Z,11.27
2019-01-10T12:12:16.450Z,10.89
2019-01-10T12:14:44.007Z,9.92
2019-01-10T12:17:12.418Z,9.01
2019-01-10T12:19:39.986Z,8.36
2019-01-10T12:22:07.459Z,8.13
2019-01-10T12:24:34.915Z,8.55
2019-01-10T12:27:03.183Z,8.56
2019-01-10T12:29:36.077Z,10.10
2019-01-10T12:31:57.258Z,11.55
2019-01-10T12:34:24.222Z,12.67
2019-01-10T12:36:59.996Z,13.43
2019-01-10T12:39:18.210Z,13.91
2019-01-10T12:41:45.254Z,14.34
2019-01-10T12:44:12.225Z,13.85
2019-01-10T12:46:39.179Z,14.44
2019-01-10T12:49:06.328Z,15.78
2019-01-10T12:51:34.006Z,15.79
2019-01-10T12:54:01.434Z,15.33
2019-01-10T12:56:28.391Z,15.16
2019-01-10T12:58:55.402Z,15.07
2019-01-10T13:01:22.344Z,14.52
2019-01-10T13:03:49.360Z,13.88
2019-01-10T13:06:16.369Z,14.28
2019-01-10T13:08:43.905Z,15.11
2019-01-10T13:11:10.904Z,14.93
2019-01-10T13:13:37.891Z,15.46
2019-01-10T13:16:04.836Z,15.94
2019-01-10T13:18:31.796Z,15.89
2019-01-10T13:20:59.369Z,16.70
2019-01-10T13:23:26.739Z,16.97
2019-01-10T13:25:59.603Z,17.36
2019-01-10T13:28:21.567Z,17.28
2019-01-10T13:30:49.667Z,17.41
2019-01-10T13:33:17.746Z,17.41
2019-01-10T13:35:46.052Z,17.79
2019-01-10T13:38:13.604Z,16.58
2019-01-10T13:40:41.035Z,15.11
2019-01-10T13:43:08.440Z,12.28
2019-01-10T13:45:35.865Z,9.45
2019-01-10T13:48:03.255Z,8.26
2019-01-10T13:50:30.889Z,7.76
2019-01-10T13:52:58.271Z,7.38
2019-01-10T13:55:25.759Z,7.09
2019-01-10T13:57:53.169Z,6.99
2019-01-10T14:00:20.797Z,6.95
2019-01-10T14:02:47.981Z,6.88
2019-01-10T14:05:15.429Z,6.94
2019-01-10T14:07:43.449Z,6.90
2019-01-10T14:10:10.395Z,6.91
2019-01-10T14:12:37.382Z,6.91
2019-01-10T14:15:04.322Z,6.64
2019-01-10T14:17:31.285Z,6.75
2019-01-10T14:19:58.213Z,6.79
2019-01-10T14:22:26.519Z,7.13
2019-01-10T14:24:54.662Z,8.09
2019-01-10T14:27:21.625Z,11.89
2019-01-10T14:29:49.789Z,15.42
2019-01-10T14:32:17.513Z,16.53
2019-01-10T14:34:44.969Z,17.34
2019-01-10T14:37:12.369Z,17.43
2019-01-10T14:39:39.786Z,15.82
2019-01-10T14:42:07.274Z,12.15
2019-01-10T14:44:34.666Z,9.31
2019-01-10T14:47:07.489Z,7.78
2019-01-10T14:49:29.440Z,6.98
2019-01-10T14:51:56.373Z,6.29
2019-01-10T14:54:23.337Z,6.06
2019-01-10T14:56:50.297Z,5.85
2019-01-10T14:59:17.400Z,5.71
2019-01-10T15:01:44.479Z,5.59
2019-01-10T15:04:11.414Z,5.50
2019-01-10T15:09:11.835Z,5.21
2019-01-10T15:11:38.831Z,5.29
2019-01-10T15:14:05.810Z,5.43
2019-01-10T15:16:32.755Z,5.33
2019-01-10T15:18:59.714Z,5.32
2019-01-10T15:21:27.129Z,5.21
2019-01-10T15:23:54.583Z,5.13
2019-01-10T15:26:22.031Z,5.05
2019-01-10T15:28:49.454Z,5.03
2019-01-10T15:31:19.120Z,5.05
2019-01-10T15:33:47.396Z,5.00
2019-01-10T15:36:14.890Z,4.92
2019-01-10T15:38:42.310Z,4.82
2019-01-10T15:41:09.846Z,4.79
2019-01-10T15:43:37.258Z,4.82
2019-01-10T15:46:04.716Z,4.82
2019-01-10T15:48:32.319Z,4.75
2019-01-10T15:50:59.726Z,4.69
2019-01-10T15:53:28.060Z,4.67
2019-01-10T15:55:55.553Z,4.71
2019-01-10T15:58:23.588Z,4.63
2019-01-10T16:00:51.909Z,4.59
2019-01-10T16:03:20.232Z,4.53
2019-01-10T16:05:47.658Z,4.52
2019-01-10T16:08:15.098Z,4.49
2019-01-10T16:10:42.793Z,4.39
2019-01-10T16:13:10.397Z,4.33
2019-01-10T16:15:38.625Z,4.23
2019-01-10T16:18:06.075Z,4.24
2019-01-10T16:20:33.480Z,4.24
2019-01-10T16:23:00.915Z,4.20
2019-01-10T16:25:28.385Z,4.20
2019-01-10T16:27:55.770Z,4.20
2019-01-10T16:30:23.254Z,4.20
2019-01-10T16:32:51.055Z,4.21
2019-01-10T16:35:18.470Z,4.20
2019-01-10T16:37:45.986Z,4.21
2019-01-10T16:40:13.432Z,4.23
2019-01-10T16:42:40.836Z,4.19
2019-01-10T16:45:09.150Z,4.17
2019-01-10T16:47:36.617Z,4.18
2019-01-10T16:50:04.832Z,4.22
2019-01-10T16:52:32.237Z,4.27
2019-01-10T16:55:00.003Z,4.31
2019-01-10T16:57:27.418Z,4.24
2019-01-10T16:59:54.910Z,4.26
2019-01-10T17:02:22.405Z,4.28
2019-01-10T17:04:49.851Z,4.29
2019-01-10T17:07:17.292Z,4.16
2019-01-10T17:09:44.785Z,4.05
2019-01-10T17:12:12.178Z,4.03
2019-01-10T17:14:39.581Z,4.07
2019-01-10T17:17:07.004Z,4.10
2019-01-10T17:19:34.475Z,4.10
2019-01-10T17:22:01.896Z,4.11
2019-01-10T17:24:29.431Z,4.05
2019-01-10T17:26:56.898Z,4.10
2019-01-10T17:29:24.308Z,4.10
2019-01-10T17:31:51.926Z,4.12
2019-01-10T17:34:19.435Z,4.09
2019-01-10T17:36:46.921Z,4.10
2019-01-10T17:39:14.320Z,4.11
2019-01-10T17:41:41.715Z,4.07
2019-01-10T17:44:09.103Z,4.13
2019-01-10T17:46:36.663Z,4.17
2019-01-10T17:49:04.083Z,4.17
2019-01-10T17:51:31.580Z,4.15
2019-01-10T17:53:59.045Z,4.08
2019-01-10T17:56:26.457Z,4.05
2019-01-10T17:58:54.875Z,4.10
2019-01-10T18:01:22.328Z,4.09
2019-01-10T18:03:49.723Z,3.99
2019-01-10T18:06:17.167Z,3.96
2019-01-10T18:08:44.573Z,3.93
2019-01-10T18:11:12.183Z,3.91
2019-01-10T18:13:39.629Z,3.92
2019-01-10T18:16:07.044Z,3.90
2019-01-10T18:18:34.645Z,3.91
2019-01-10T18:21:02.099Z,3.93
2019-01-10T18:23:29.618Z,3.95
2019-01-10T18:25:57.580Z,4.01
2019-01-10T18:28:24.983Z,4.00
2019-01-10T18:30:52.388Z,3.97
2019-01-10T18:33:19.840Z,4.00
2019-01-10T18:35:47.328Z,3.99
2019-01-10T18:38:14.903Z,3.99
2019-01-10T18:40:42.323Z,3.97
2019-01-10T18:43:09.819Z,3.91
2019-01-10T18:45:37.176Z,3.90
2019-01-10T18:48:04.607Z,3.86
2019-01-10T18:50:32.118Z,3.74
2019-01-10T18:52:59.589Z,3.63
2019-01-10T18:55:26.995Z,3.59
2019-01-10T18:57:54.535Z,3.52
2019-01-10T19:00:23.184Z,3.55
2019-01-10T19:02:50.858Z,3.59
2019-01-10T19:05:18.363Z,3.63
2019-01-10T19:07:46.004Z,3.65
2019-01-10T19:10:16.224Z,3.64
2019-01-10T19:12:43.692Z,3.64
2019-01-10T19:15:11.125Z,3.69
2019-01-10T19:17:38.632Z,3.67
2019-01-10T19:22:59.174Z,3.85
2019-01-10T19:25:27.151Z,3.63
2019-01-10T19:27:54.626Z,3.59
2019-01-10T19:30:23.465Z,3.47
2019-01-10T19:32:50.918Z,3.45
2019-01-10T19:35:18.383Z,3.39
2019-01-10T19:37:45.838Z,3.36
2019-01-10T19:40:15.183Z,3.35
2019-01-10T19:42:42.598Z,3.40
2019-01-10T19:45:10.021Z,3.39
2019-01-10T19:47:37.414Z,3.37
2019-01-10T19:50:04.860Z,3.37
2019-01-10T19:52:32.269Z,3.32
2019-01-10T19:54:59.753Z,3.32
2019-01-10T19:57:27.191Z,3.28
2019-01-10T19:59:54.587Z,3.32
2019-01-10T20:02:22.133Z,3.26
2019-01-10T20:04:49.558Z,3.25
2019-01-10T20:07:16.967Z,3.23
2019-01-10T20:09:44.426Z,3.16
2019-01-10T20:12:11.962Z,3.13
2019-01-10T20:14:39.353Z,3.12
2019-01-10T20:17:06.832Z,3.16
2019-01-10T20:19:34.258Z,3.14
2019-01-10T20:22:01.871Z,3.13
2019-01-10T20:24:29.295Z,3.12
2019-01-10T20:26:56.745Z,3.13
2019-01-10T20:29:24.133Z,3.15
2019-01-10T20:31:51.547Z,3.21
2019-01-10T20:34:19.072Z,3.27
2019-01-10T20:36:46.453Z,3.31
2019-01-10T20:39:13.888Z,3.32
2019-01-10T20:41:41.296Z,3.30
2019-01-10T20:44:08.692Z,3.28
2019-01-10T20:46:36.190Z,3.28
2019-01-10T20:49:03.708Z,3.26
2019-01-10T20:51:31.105Z,3.26
2019-01-10T20:53:58.528Z,3.26
2019-01-10T20:56:25.981Z,3.23
2019-01-10T20:58:53.926Z,3.23
2019-01-10T21:01:20.831Z,3.22
2019-01-10T21:03:48.263Z,3.21
2019-01-10T21:06:15.701Z,3.20
2019-01-10T21:08:43.111Z,3.18
2019-01-10T21:11:10.551Z,3.15
2019-01-10T21:13:37.982Z,3.13
2019-01-10T21:16:05.396Z,3.03
2019-01-10T21:18:32.884Z,3.06
2019-01-10T21:21:00.291Z,3.11
2019-01-10T21:23:27.833Z,3.11
2019-01-10T21:25:55.569Z,3.13
2019-01-10T21:28:24.404Z,3.11
2019-01-10T21:30:50.503Z,3.05
2019-01-10T21:33:18.544Z,3.04
2019-01-10T21:35:45.932Z,3.02
2019-01-10T21:38:13.384Z,3.00
2019-01-10T21:40:40.821Z,3.02
2019-01-10T21:43:08.226Z,3.03
2019-01-10T21:45:35.632Z,3.04
2019-01-10T21:48:04.042Z,3.11
2019-01-10T21:50:31.595Z,3.08
2019-01-10T21:52:58.994Z,3.13
2019-01-10T21:55:26.446Z,3.18
2019-01-10T21:57:53.859Z,3.18
2019-01-10T22:00:24.665Z,3.21
2019-01-10T22:02:52.074Z,3.22
2019-01-10T22:05:19.541Z,3.21
2019-01-10T22:07:46.955Z,3.14
2019-01-10T22:10:14.354Z,3.20
2019-01-10T22:12:41.859Z,3.27
2019-01-10T22:15:09.212Z,3.34
2019-01-10T22:17:36.609Z,3.36
2019-01-10T22:20:04.014Z,3.35
2019-01-10T22:22:31.444Z,3.40
2019-01-10T22:24:58.837Z,3.41
2019-01-10T22:27:26.236Z,3.31
2019-01-10T22:29:53.698Z,3.28
2019-01-10T22:32:21.160Z,3.26
2019-01-10T22:34:48.651Z,3.30
2019-01-10T22:37:16.402Z,3.35
2019-01-10T22:39:43.544Z,3.28
2019-01-10T22:42:10.991Z,3.27
2019-01-10T22:44:39.295Z,3.25
2019-01-10T22:47:06.735Z,3.23
2019-01-10T22:49:34.145Z,3.19
2019-01-10T22:52:01.583Z,3.16
2019-01-10T22:54:28.975Z,3.19
2019-01-10T22:56:56.406Z,3.16
2019-01-10T22:59:23.861Z,3.20
2019-01-10T23:01:51.290Z,3.22
2019-01-10T23:04:18.710Z,3.22
2019-01-10T23:06:46.107Z,3.24
2019-01-10T23:09:13.494Z,3.27
2019-01-10T23:11:40.919Z,3.23
2019-01-10T23:14:08.399Z,3.22
2019-01-10T23:16:35.803Z,3.21
2019-01-10T23:19:03.214Z,3.24
2019-01-10T23:21:30.668Z,3.18
2019-01-10T23:23:58.170Z,3.24
2019-01-10T23:26:25.580Z,3.27
2019-01-10T23:28:52.987Z,3.32
2019-01-10T23:31:20.386Z,3.34
2019-01-10T23:33:47.831Z,3.32
2019-01-10T23:36:15.249Z,3.29
2019-01-10T23:38:42.695Z,3.26
2019-01-10T23:41:10.155Z,3.26
2019-01-10T23:43:37.534Z,3.23
2019-01-10T23:46:05.581Z,3.26
2019-01-10T23:48:33.028Z,3.31
2019-01-10T23:51:00.463Z,3.25
2019-01-10T23:53:28.706Z,3.27
2019-01-10T23:55:57.340Z,3.29
2019-01-10T23:58:24.735Z,3.26
